Terminal Aerodrome Forecast
Issued by NWS Mt. Holly, NJ

Home | Current Version | Previous Version | Text Only | Print | Product List | Glossary On
Versions: 1 2 3 4 5 6 7 8 9 10 11 12 13 14 15 16 17 18 19 20 21 22 23 24
000
FTUS41 KPHI 241140
TAFPHL
TAF
KPHL 241140Z 2412/2518 34005KT P6SM SCT250
     FM241400 VRB04KT P6SM SCT250
     FM241600 24008KT P6SM SCT250
     FM250100 19005KT P6SM BKN150
     FM250800 22003KT 6SM BR BKN150
      TEMPO 2508/2511 SHRA BKN060
     FM251200 24006KT P6SM BKN150=

USA.gov is the U.S. government's official web portal to all federal, state and local government web resources and services.